sensor_id;sensor_type;location;lat;lon;timestamp;temperature;humidity
56428;DHT22;42331;53.578;9.760;2022-12-10T00:02:19;0.40;99.90
56428;DHT22;42331;53.578;9.760;2022-12-10T00:04:49;0.30;99.90
56428;DHT22;42331;53.578;9.760;2022-12-10T00:07:20;0.40;99.90
56428;DHT22;42331;53.578;9.760;2022-12-10T00:09:51;0.40;99.90
56428;DHT22;42331;53.578;9.760;2022-12-10T00:12:22;0.30;99.90
56428;DHT22;42331;53.578;9.760;2022-12-10T00:14:52;0.30;99.90
56428;DHT22;42331;53.578;9.760;2022-12-10T00:17:23;0.30;99.90
56428;DHT22;42331;53.578;9.760;2022-12-10T00:19:53;0.30;99.90
56428;DHT22;42331;53.578;9.760;2022-12-10T00:22:24;0.30;99.90
56428;DHT22;42331;53.578;9.760;2022-12-10T00:24:55;0.30;99.90
56428;DHT22;42331;53.578;9.760;2022-12-10T00:27:25;0.30;99.90
56428;DHT22;42331;53.578;9.760;2022-12-10T00:29:56;0.30;99.90
56428;DHT22;42331;53.578;9.760;2022-12-10T00:32:27;0.30;99.90
56428;DHT22;42331;53.578;9.760;2022-12-10T00:34:58;0.30;99.90
56428;DHT22;42331;53.578;9.760;2022-12-10T00:37:28;0.30;99.90
56428;DHT22;42331;53.578;9.760;2022-12-10T00:39:59;0.30;99.90
56428;DHT22;42331;53.578;9.760;2022-12-10T00:42:30;0.30;99.90
56428;DHT22;42331;53.578;9.760;2022-12-10T00:45:00;0.40;99.90
56428;DHT22;42331;53.578;9.760;2022-12-10T00:47:31;0.30;99.90
56428;DHT22;42331;53.578;9.760;2022-12-10T00:50:02;0.30;99.90
56428;DHT22;42331;53.578;9.760;2022-12-10T00:52:33;0.30;99.90
56428;DHT22;42331;53.578;9.760;2022-12-10T00:55:03;0.30;99.90
56428;DHT22;42331;53.578;9.760;2022-12-10T00:57:34;0.30;99.90
56428;DHT22;42331;53.578;9.760;2022-12-10T01:00:06;0.30;99.90
56428;DHT22;42331;53.578;9.760;2022-12-10T01:02:36;0.30;99.90
56428;DHT22;42331;53.578;9.760;2022-12-10T01:05:07;0.30;99.90
56428;DHT22;42331;53.578;9.760;2022-12-10T01:07:38;0.30;99.90
56428;DHT22;42331;53.578;9.760;2022-12-10T01:10:09;0.30;99.90
56428;DHT22;42331;53.578;9.760;2022-12-10T01:12:39;0.30;99.90
56428;DHT22;42331;53.578;9.760;2022-12-10T01:15:10;0.30;99.90
56428;DHT22;42331;53.578;9.760;2022-12-10T01:17:41;0.30;99.90
56428;DHT22;42331;53.578;9.760;2022-12-10T01:20:12;0.30;99.90
56428;DHT22;42331;53.578;9.760;2022-12-10T01:22:43;0.30;99.90
56428;DHT22;42331;53.578;9.760;2022-12-10T01:25:14;0.30;99.90
56428;DHT22;42331;53.578;9.760;2022-12-10T01:28:02;0.30;99.90
56428;DHT22;42331;53.578;9.760;2022-12-10T01:40:13;0.30;99.90
56428;DHT22;42331;53.578;9.760;2022-12-10T01:42:44;0.30;99.90
56428;DHT22;42331;53.578;9.760;2022-12-10T01:45:15;0.30;99.90
56428;DHT22;42331;53.578;9.760;2022-12-10T01:47:46;0.30;99.90
56428;DHT22;42331;53.578;9.760;2022-12-10T01:50:17;0.30;99.90
56428;DHT22;42331;53.578;9.760;2022-12-10T01:52:48;0.30;99.90
56428;DHT22;42331;53.578;9.760;2022-12-10T01:55:55;0.20;99.90
56428;DHT22;42331;53.578;9.760;2022-12-10T01:58:25;0.20;99.90
56428;DHT22;42331;53.578;9.760;2022-12-10T02:01:03;0.20;99.90
56428;DHT22;42331;53.578;9.760;2022-12-10T02:09:20;0.30;99.90
56428;DHT22;42331;53.578;9.760;2022-12-10T02:12:21;0.20;99.90
56428;DHT22;42331;53.578;9.760;2022-12-10T02:15:21;0.30;99.90
56428;DHT22;42331;53.578;9.760;2022-12-10T02:17:54;0.30;99.90
56428;DHT22;42331;53.578;9.760;2022-12-10T02:20:41;0.30;99.90
56428;DHT22;42331;53.578;9.760;2022-12-10T02:23:23;0.30;99.90
56428;DHT22;42331;53.578;9.760;2022-12-10T02:26:11;0.30;99.90
56428;DHT22;42331;53.578;9.760;2022-12-10T02:31:35;0.30;99.90
56428;DHT22;42331;53.578;9.760;2022-12-10T02:34:08;0.30;99.90
56428;DHT22;42331;53.578;9.760;2022-12-10T02:36:42;0.30;99.90
56428;DHT22;42331;53.578;9.760;2022-12-10T02:39:18;0.30;99.90
56428;DHT22;42331;53.578;9.760;2022-12-10T02:41:52;0.30;99.90
56428;DHT22;42331;53.578;9.760;2022-12-10T02:44:24;0.30;99.90
56428;DHT22;42331;53.578;9.760;2022-12-10T02:46:57;0.30;99.90
56428;DHT22;42331;53.578;9.760;2022-12-10T02:49:30;0.30;99.90
56428;DHT22;42331;53.578;9.760;2022-12-10T02:52:14;0.30;99.90
56428;DHT22;42331;53.578;9.760;2022-12-10T02:54:47;0.30;99.90
56428;DHT22;42331;53.578;9.760;2022-12-10T03:08:28;0.30;99.90
56428;DHT22;42331;53.578;9.760;2022-12-10T03:11:04;0.30;99.90
56428;DHT22;42331;53.578;9.760;2022-12-10T03:16:39;0.30;99.90
56428;DHT22;42331;53.578;9.760;2022-12-10T03:19:16;0.30;99.90
56428;DHT22;42331;53.578;9.760;2022-12-10T03:21:49;0.30;99.90
56428;DHT22;42331;53.578;9.760;2022-12-10T03:24:22;0.30;99.90
56428;DHT22;42331;53.578;9.760;2022-12-10T03:26:53;0.30;99.90
56428;DHT22;42331;53.578;9.760;2022-12-10T03:29:26;0.40;99.90
56428;DHT22;42331;53.578;9.760;2022-12-10T03:32:00;0.40;99.90
56428;DHT22;42331;53.578;9.760;2022-12-10T03:34:32;0.40;99.90
56428;DHT22;42331;53.578;9.760;2022-12-10T03:37:04;0.40;99.90
56428;DHT22;42331;53.578;9.760;2022-12-10T03:39:35;0.40;99.90
56428;DHT22;42331;53.578;9.760;2022-12-10T03:42:06;0.40;99.90
56428;DHT22;42331;53.578;9.760;2022-12-10T03:44:39;0.40;99.90
56428;DHT22;42331;53.578;9.760;2022-12-10T03:47:13;0.40;99.90
56428;DHT22;42331;53.578;9.760;2022-12-10T03:49:44;0.30;99.90
56428;DHT22;42331;53.578;9.760;2022-12-10T03:52:15;0.40;99.90
56428;DHT22;42331;53.578;9.760;2022-12-10T03:54:46;0.40;99.90
56428;DHT22;42331;53.578;9.760;2022-12-10T03:57:17;0.50;99.90
56428;DHT22;42331;53.578;9.760;2022-12-10T03:59:47;0.40;99.90
56428;DHT22;42331;53.578;9.760;2022-12-10T04:02:18;0.40;99.90
56428;DHT22;42331;53.578;9.760;2022-12-10T04:04:49;0.50;99.90
56428;DHT22;42331;53.578;9.760;2022-12-10T04:07:20;0.40;99.90
56428;DHT22;42331;53.578;9.760;2022-12-10T04:09:50;0.40;99.90
56428;DHT22;42331;53.578;9.760;2022-12-10T04:12:21;0.50;99.90
56428;DHT22;42331;53.578;9.760;2022-12-10T04:14:52;0.50;99.90
56428;DHT22;42331;53.578;9.760;2022-12-10T04:17:41;0.40;99.90
56428;DHT22;42331;53.578;9.760;2022-12-10T04:20:12;0.40;99.90
56428;DHT22;42331;53.578;9.760;2022-12-10T04:23:01;0.50;99.90
56428;DHT22;42331;53.578;9.760;2022-12-10T04:25:50;0.60;99.90
56428;DHT22;42331;53.578;9.760;2022-12-10T04:28:40;0.50;99.90
56428;DHT22;42331;53.578;9.760;2022-12-10T04:31:10;0.40;99.90
56428;DHT22;42331;53.578;9.760;2022-12-10T04:33:41;0.30;99.90
56428;DHT22;42331;53.578;9.760;2022-12-10T04:36:12;0.30;99.90
56428;DHT22;42331;53.578;9.760;2022-12-10T04:38:42;0.30;99.90
56428;DHT22;42331;53.578;9.760;2022-12-10T04:41:13;0.30;99.90
56428;DHT22;42331;53.578;9.760;2022-12-10T04:43:45;0.40;99.90
56428;DHT22;42331;53.578;9.760;2022-12-10T04:46:16;0.40;99.90
56428;DHT22;42331;53.578;9.760;2022-12-10T04:48:47;0.40;99.90
56428;DHT22;42331;53.578;9.760;2022-12-10T04:51:17;0.40;99.90
56428;DHT22;42331;53.578;9.760;2022-12-10T04:53:48;0.40;99.90
56428;DHT22;42331;53.578;9.760;2022-12-10T04:56:19;0.40;99.90
56428;DHT22;42331;53.578;9.760;2022-12-10T04:58:50;0.40;99.90
56428;DHT22;42331;53.578;9.760;2022-12-10T05:01:20;0.50;99.90
56428;DHT22;42331;53.578;9.760;2022-12-10T05:03:51;0.50;99.90
56428;DHT22;42331;53.578;9.760;2022-12-10T05:06:23;0.40;99.90
56428;DHT22;42331;53.578;9.760;2022-12-10T05:08:54;0.40;99.90
56428;DHT22;42331;53.578;9.760;2022-12-10T05:11:28;0.40;99.90
56428;DHT22;42331;53.578;9.760;2022-12-10T05:13:59;0.40;99.90
56428;DHT22;42331;53.578;9.760;2022-12-10T05:16:31;0.40;99.90
56428;DHT22;42331;53.578;9.760;2022-12-10T05:19:02;0.40;99.90
56428;DHT22;42331;53.578;9.760;2022-12-10T05:21:33;0.40;99.90
56428;DHT22;42331;53.578;9.760;2022-12-10T05:24:23;0.40;99.90
56428;DHT22;42331;53.578;9.760;2022-12-10T05:26:53;0.40;99.90
56428;DHT22;42331;53.578;9.760;2022-12-10T05:29:24;0.40;99.90
56428;DHT22;42331;53.578;9.760;2022-12-10T05:31:55;0.40;99.90
56428;DHT22;42331;53.578;9.760;2022-12-10T05:34:26;0.40;99.90
56428;DHT22;42331;53.578;9.760;2022-12-10T05:36:57;0.40;99.90
56428;DHT22;42331;53.578;9.760;2022-12-10T05:39:27;0.40;99.90
56428;DHT22;42331;53.578;9.760;2022-12-10T05:41:58;0.30;99.90
56428;DHT22;42331;53.578;9.760;2022-12-10T05:44:29;0.40;99.90
56428;DHT22;42331;53.578;9.760;2022-12-10T05:46:59;0.40;99.90
56428;DHT22;42331;53.578;9.760;2022-12-10T05:49:30;0.40;99.90
56428;DHT22;42331;53.578;9.760;2022-12-10T05:52:01;0.30;99.90
56428;DHT22;42331;53.578;9.760;2022-12-10T05:54:32;0.40;99.90
56428;DHT22;42331;53.578;9.760;2022-12-10T05:57:02;0.40;99.90
56428;DHT22;42331;53.578;9.760;2022-12-10T05:59:33;0.40;99.90
56428;DHT22;42331;53.578;9.760;2022-12-10T06:02:04;0.40;99.90
56428;DHT22;42331;53.578;9.760;2022-12-10T06:04:34;0.30;99.90
56428;DHT22;42331;53.578;9.760;2022-12-10T06:07:05;0.30;99.90
56428;DHT22;42331;53.578;9.760;2022-12-10T06:09:35;0.40;99.90
56428;DHT22;42331;53.578;9.760;2022-12-10T06:12:06;0.40;99.90
56428;DHT22;42331;53.578;9.760;2022-12-10T06:14:37;0.30;99.90
56428;DHT22;42331;53.578;9.760;2022-12-10T06:17:08;0.30;99.90
56428;DHT22;42331;53.578;9.760;2022-12-10T06:19:38;0.30;99.90
56428;DHT22;42331;53.578;9.760;2022-12-10T06:22:09;0.30;99.90
56428;DHT22;42331;53.578;9.760;2022-12-10T06:24:40;0.30;99.90
56428;DHT22;42331;53.578;9.760;2022-12-10T06:27:10;0.40;99.90
56428;DHT22;42331;53.578;9.760;2022-12-10T06:29:41;0.40;99.90
56428;DHT22;42331;53.578;9.760;2022-12-10T06:32:12;0.40;99.90
56428;DHT22;42331;53.578;9.760;2022-12-10T06:34:42;0.40;99.90
56428;DHT22;42331;53.578;9.760;2022-12-10T06:37:13;0.30;99.90
56428;DHT22;42331;53.578;9.760;2022-12-10T06:39:44;0.30;99.90
56428;DHT22;42331;53.578;9.760;2022-12-10T06:42:14;0.40;99.90
56428;DHT22;42331;53.578;9.760;2022-12-10T06:44:45;0.40;99.90
56428;DHT22;42331;53.578;9.760;2022-12-10T06:47:16;0.30;99.90
56428;DHT22;42331;53.578;9.760;2022-12-10T06:49:46;0.40;99.90
56428;DHT22;42331;53.578;9.760;2022-12-10T06:52:17;0.40;99.90
56428;DHT22;42331;53.578;9.760;2022-12-10T06:54:48;0.30;99.90
56428;DHT22;42331;53.578;9.760;2022-12-10T06:57:18;0.30;99.90
56428;DHT22;42331;53.578;9.760;2022-12-10T06:59:49;0.30;99.90
56428;DHT22;42331;53.578;9.760;2022-12-10T07:02:20;0.30;99.90
56428;DHT22;42331;53.578;9.760;2022-12-10T07:04:51;0.30;99.90
56428;DHT22;42331;53.578;9.760;2022-12-10T07:07:26;0.30;99.90
56428;DHT22;42331;53.578;9.760;2022-12-10T07:09:57;0.30;99.90
56428;DHT22;42331;53.578;9.760;2022-12-10T07:12:29;0.30;99.90
56428;DHT22;42331;53.578;9.760;2022-12-10T07:14:59;0.30;99.90
56428;DHT22;42331;53.578;9.760;2022-12-10T07:17:30;0.30;99.90
56428;DHT22;42331;53.578;9.760;2022-12-10T07:20:01;0.30;99.90
56428;DHT22;42331;53.578;9.760;2022-12-10T07:22:32;0.20;99.90
56428;DHT22;42331;53.578;9.760;2022-12-10T07:25:03;0.20;99.90
56428;DHT22;42331;53.578;9.760;2022-12-10T07:27:34;0.20;99.90
56428;DHT22;42331;53.578;9.760;2022-12-10T07:30:05;0.20;99.90
56428;DHT22;42331;53.578;9.760;2022-12-10T07:32:36;0.20;99.90
56428;DHT22;42331;53.578;9.760;2022-12-10T07:35:07;0.20;99.90
56428;DHT22;42331;53.578;9.760;2022-12-10T07:37:38;0.20;99.90
56428;DHT22;42331;53.578;9.760;2022-12-10T07:40:09;0.20;99.90
56428;DHT22;42331;53.578;9.760;2022-12-10T07:42:40;0.30;99.90
56428;DHT22;42331;53.578;9.760;2022-12-10T07:45:11;0.20;99.90
56428;DHT22;42331;53.578;9.760;2022-12-10T07:47:41;0.30;99.90
56428;DHT22;42331;53.578;9.760;2022-12-10T07:50:12;0.30;99.90
56428;DHT22;42331;53.578;9.760;2022-12-10T07:52:43;0.20;99.90
56428;DHT22;42331;53.578;9.760;2022-12-10T07:55:13;0.20;99.90
56428;DHT22;42331;53.578;9.760;2022-12-10T07:57:44;0.30;99.90
56428;DHT22;42331;53.578;9.760;2022-12-10T08:00:15;0.20;99.90
56428;DHT22;42331;53.578;9.760;2022-12-10T08:02:46;0.20;99.90
56428;DHT22;42331;53.578;9.760;2022-12-10T08:05:16;0.20;99.90
56428;DHT22;42331;53.578;9.760;2022-12-10T08:07:47;0.20;99.90
56428;DHT22;42331;53.578;9.760;2022-12-10T08:10:18;0.20;99.90
56428;DHT22;42331;53.578;9.760;2022-12-10T08:12:49;0.20;99.90
56428;DHT22;42331;53.578;9.760;2022-12-10T08:15:20;0.20;99.90
56428;DHT22;42331;53.578;9.760;2022-12-10T08:17:51;0.20;99.90
56428;DHT22;42331;53.578;9.760;2022-12-10T08:20:22;0.20;99.90
56428;DHT22;42331;53.578;9.760;2022-12-10T08:22:53;0.10;99.90
56428;DHT22;42331;53.578;9.760;2022-12-10T08:25:24;0.20;99.90
56428;DHT22;42331;53.578;9.760;2022-12-10T08:27:55;0.20;99.90
56428;DHT22;42331;53.578;9.760;2022-12-10T08:30:26;0.20;99.90
56428;DHT22;42331;53.578;9.760;2022-12-10T08:32:57;0.10;99.90
56428;DHT22;42331;53.578;9.760;2022-12-10T08:35:28;0.20;99.90
56428;DHT22;42331;53.578;9.760;2022-12-10T08:37:59;0.20;99.90
56428;DHT22;42331;53.578;9.760;2022-12-10T08:40:30;0.10;99.90
56428;DHT22;42331;53.578;9.760;2022-12-10T08:43:00;0.10;99.90
56428;DHT22;42331;53.578;9.760;2022-12-10T08:45:31;0.00;99.90
56428;DHT22;42331;53.578;9.760;2022-12-10T08:48:02;0.10;99.90
56428;DHT22;42331;53.578;9.760;2022-12-10T08:50:33;0.00;99.90
56428;DHT22;42331;53.578;9.760;2022-12-10T08:53:04;0.00;99.90
56428;DHT22;42331;53.578;9.760;2022-12-10T08:55:38;0.00;99.90
56428;DHT22;42331;53.578;9.760;2022-12-10T08:58:09;0.00;99.90
56428;DHT22;42331;53.578;9.760;2022-12-10T09:00:40;0.00;99.90
56428;DHT22;42331;53.578;9.760;2022-12-10T09:03:11;0.00;99.90
56428;DHT22;42331;53.578;9.760;2022-12-10T09:05:42;0.10;99.90
56428;DHT22;42331;53.578;9.760;2022-12-10T09:08:13;0.00;99.90
56428;DHT22;42331;53.578;9.760;2022-12-10T09:10:43;0.10;99.90
56428;DHT22;42331;53.578;9.760;2022-12-10T09:13:15;0.10;99.90
56428;DHT22;42331;53.578;9.760;2022-12-10T09:15:52;0.00;99.90
56428;DHT22;42331;53.578;9.760;2022-12-10T09:18:23;0.00;99.90
56428;DHT22;42331;53.578;9.760;2022-12-10T09:20:54;0.00;99.90
56428;DHT22;42331;53.578;9.760;2022-12-10T09:23:25;0.00;99.90
56428;DHT22;42331;53.578;9.760;2022-12-10T09:25:55;-0.10;99.90
56428;DHT22;42331;53.578;9.760;2022-12-10T09:28:26;-0.10;99.90
56428;DHT22;42331;53.578;9.760;2022-12-10T09:30:58;-0.10;99.90
56428;DHT22;42331;53.578;9.760;2022-12-10T09:33:29;-0.10;99.90
56428;DHT22;42331;53.578;9.760;2022-12-10T09:36:03;-0.10;99.90
56428;DHT22;42331;53.578;9.760;2022-12-10T09:38:37;-0.10;99.90
56428;DHT22;42331;53.578;9.760;2022-12-10T09:41:47;-0.10;99.90
56428;DHT22;42331;53.578;9.760;2022-12-10T09:47:16;-0.10;99.90
56428;DHT22;42331;53.578;9.760;2022-12-10T09:52:45;-0.10;99.90
56428;DHT22;42331;53.578;9.760;2022-12-10T09:55:21;-0.10;99.90
56428;DHT22;42331;53.578;9.760;2022-12-10T09:57:54;-0.10;99.90
56428;DHT22;42331;53.578;9.760;2022-12-10T10:00:39;-0.10;99.90
56428;DHT22;42331;53.578;9.760;2022-12-10T10:03:13;-0.10;99.90
56428;DHT22;42331;53.578;9.760;2022-12-10T10:05:53;-0.10;99.90
56428;DHT22;42331;53.578;9.760;2022-12-10T10:09:02;-0.20;99.90
56428;DHT22;42331;53.578;9.760;2022-12-10T10:11:32;-0.20;99.90
56428;DHT22;42331;53.578;9.760;2022-12-10T10:14:13;-0.20;99.90
56428;DHT22;42331;53.578;9.760;2022-12-10T10:17:03;-0.10;99.90
56428;DHT22;42331;53.578;9.760;2022-12-10T10:19:35;-0.10;99.90
56428;DHT22;42331;53.578;9.760;2022-12-10T10:22:26;-0.10;99.90
56428;DHT22;42331;53.578;9.760;2022-12-10T10:25:01;-0.10;99.90
56428;DHT22;42331;53.578;9.760;2022-12-10T10:30:42;-0.10;99.90
56428;DHT22;42331;53.578;9.760;2022-12-10T10:33:16;-0.10;99.90
56428;DHT22;42331;53.578;9.760;2022-12-10T10:35:57;-0.10;99.90
56428;DHT22;42331;53.578;9.760;2022-12-10T10:38:50;-0.10;99.90
56428;DHT22;42331;53.578;9.760;2022-12-10T10:44:16;0.00;99.90
56428;DHT22;42331;53.578;9.760;2022-12-10T10:46:53;-0.10;99.90
56428;DHT22;42331;53.578;9.760;2022-12-10T10:49:27;-0.10;99.90
56428;DHT22;42331;53.578;9.760;2022-12-10T10:52:06;0.00;99.90
56428;DHT22;42331;53.578;9.760;2022-12-10T10:54:43;0.10;99.90
56428;DHT22;42331;53.578;9.760;2022-12-10T10:57:33;0.10;99.90
56428;DHT22;42331;53.578;9.760;2022-12-10T11:00:19;0.10;99.90
56428;DHT22;42331;53.578;9.760;2022-12-10T11:02:52;0.10;99.90
56428;DHT22;42331;53.578;9.760;2022-12-10T11:05:30;0.10;99.90
56428;DHT22;42331;53.578;9.760;2022-12-10T11:08:06;0.10;99.90
56428;DHT22;42331;53.578;9.760;2022-12-10T11:11:02;0.10;99.90
56428;DHT22;42331;53.578;9.760;2022-12-10T11:13:35;0.20;99.90
56428;DHT22;42331;53.578;9.760;2022-12-10T11:16:23;0.20;99.90
56428;DHT22;42331;53.578;9.760;2022-12-10T11:18:56;0.20;99.90
56428;DHT22;42331;53.578;9.760;2022-12-10T11:21:34;0.20;99.90
56428;DHT22;42331;53.578;9.760;2022-12-10T11:24:10;0.10;99.90
56428;DHT22;42331;53.578;9.760;2022-12-10T11:26:59;0.00;99.90
56428;DHT22;42331;53.578;9.760;2022-12-10T11:30:13;0.00;99.90
56428;DHT22;42331;53.578;9.760;2022-12-10T11:32:45;0.00;99.90
56428;DHT22;42331;53.578;9.760;2022-12-10T11:43:31;0.00;99.90
56428;DHT22;42331;53.578;9.760;2022-12-10T11:49:05;-0.10;99.90
56428;DHT22;42331;53.578;9.760;2022-12-10T11:57:37;0.20;99.90
56428;DHT22;42331;53.578;9.760;2022-12-10T12:00:28;0.00;99.90
56428;DHT22;42331;53.578;9.760;2022-12-10T12:06:16;-0.20;99.90
56428;DHT22;42331;53.578;9.760;2022-12-10T12:20:48;-0.20;99.90
56428;DHT22;42331;53.578;9.760;2022-12-10T12:23:42;-0.20;99.90
56428;DHT22;42331;53.578;9.760;2022-12-10T12:26:27;-0.20;99.90
56428;DHT22;42331;53.578;9.760;2022-12-10T12:29:29;-0.20;99.90
56428;DHT22;42331;53.578;9.760;2022-12-10T12:32:15;-0.20;99.90
56428;DHT22;42331;53.578;9.760;2022-12-10T12:35:02;-0.10;99.90
56428;DHT22;42331;53.578;9.760;2022-12-10T12:37:53;-0.10;99.90
56428;DHT22;42331;53.578;9.760;2022-12-10T12:40:34;-0.10;99.90
56428;DHT22;42331;53.578;9.760;2022-12-10T12:43:17;-0.20;99.90
56428;DHT22;42331;53.578;9.760;2022-12-10T12:45:52;-0.20;99.90
56428;DHT22;42331;53.578;9.760;2022-12-10T12:48:34;-0.20;99.90
56428;DHT22;42331;53.578;9.760;2022-12-10T12:51:12;-0.20;99.90
56428;DHT22;42331;53.578;9.760;2022-12-10T12:53:45;-0.20;99.90
56428;DHT22;42331;53.578;9.760;2022-12-10T13:05:21;-0.10;99.90
56428;DHT22;42331;53.578;9.760;2022-12-10T13:14:12;-0.10;99.90
56428;DHT22;42331;53.578;9.760;2022-12-10T13:22:12;-0.20;99.90
56428;DHT22;42331;53.578;9.760;2022-12-10T13:25:16;-0.30;99.90
56428;DHT22;42331;53.578;9.760;2022-12-10T13:34:32;-0.20;99.90
56428;DHT22;42331;53.578;9.760;2022-12-10T13:37:30;-0.10;99.90
56428;DHT22;42331;53.578;9.760;2022-12-10T13:40:59;-0.10;99.90
56428;DHT22;42331;53.578;9.760;2022-12-10T13:44:11;-0.10;99.90
56428;DHT22;42331;53.578;9.760;2022-12-10T13:47:24;-0.10;99.90
56428;DHT22;42331;53.578;9.760;2022-12-10T13:50:36;-0.10;99.90
56428;DHT22;42331;53.578;9.760;2022-12-10T13:56:36;-0.10;99.90
56428;DHT22;42331;53.578;9.760;2022-12-10T13:59:35;-0.10;99.90
56428;DHT22;42331;53.578;9.760;2022-12-10T14:02:37;-0.10;99.90
56428;DHT22;42331;53.578;9.760;2022-12-10T14:08:05;-0.10;99.90
56428;DHT22;42331;53.578;9.760;2022-12-10T14:10:41;-0.20;99.90
56428;DHT22;42331;53.578;9.760;2022-12-10T14:13:16;-0.10;99.90
56428;DHT22;42331;53.578;9.760;2022-12-10T14:15:55;-0.10;99.90
56428;DHT22;42331;53.578;9.760;2022-12-10T14:18:27;-0.10;99.90
56428;DHT22;42331;53.578;9.760;2022-12-10T14:21:03;-0.20;99.90
56428;DHT22;42331;53.578;9.760;2022-12-10T14:23:35;-0.10;99.90
56428;DHT22;42331;53.578;9.760;2022-12-10T14:26:20;-0.20;99.90
56428;DHT22;42331;53.578;9.760;2022-12-10T14:28:56;-0.20;99.90
56428;DHT22;42331;53.578;9.760;2022-12-10T14:31:31;-0.30;99.90
56428;DHT22;42331;53.578;9.760;2022-12-10T14:34:08;-0.30;99.90
56428;DHT22;42331;53.578;9.760;2022-12-10T14:36:46;-0.30;99.90
56428;DHT22;42331;53.578;9.760;2022-12-10T14:39:20;-0.30;99.90
56428;DHT22;42331;53.578;9.760;2022-12-10T14:41:55;-0.30;99.90
56428;DHT22;42331;53.578;9.760;2022-12-10T14:44:27;-0.40;99.90
56428;DHT22;42331;53.578;9.760;2022-12-10T14:47:18;-0.40;99.90
56428;DHT22;42331;53.578;9.760;2022-12-10T14:49:53;-0.30;99.90
56428;DHT22;42331;53.578;9.760;2022-12-10T14:52:30;-0.30;99.90
56428;DHT22;42331;53.578;9.760;2022-12-10T14:55:03;-0.30;99.90
56428;DHT22;42331;53.578;9.760;2022-12-10T14:57:39;-0.30;99.90
56428;DHT22;42331;53.578;9.760;2022-12-10T15:00:22;-0.30;99.90
56428;DHT22;42331;53.578;9.760;2022-12-10T15:02:56;-0.30;99.90
56428;DHT22;42331;53.578;9.760;2022-12-10T15:05:30;-0.30;99.90
56428;DHT22;42331;53.578;9.760;2022-12-10T15:08:14;-0.30;99.90
56428;DHT22;42331;53.578;9.760;2022-12-10T15:10:50;-0.30;99.90
56428;DHT22;42331;53.578;9.760;2022-12-10T15:13:43;-0.20;99.90
56428;DHT22;42331;53.578;9.760;2022-12-10T15:16:37;-0.20;99.90
56428;DHT22;42331;53.578;9.760;2022-12-10T15:19:20;-0.20;99.90
56428;DHT22;42331;53.578;9.760;2022-12-10T15:21:59;-0.20;99.90
56428;DHT22;42331;53.578;9.760;2022-12-10T15:24:40;-0.20;99.90
56428;DHT22;42331;53.578;9.760;2022-12-10T15:27:16;-0.20;99.90
56428;DHT22;42331;53.578;9.760;2022-12-10T15:29:48;-0.30;99.90
56428;DHT22;42331;53.578;9.760;2022-12-10T15:32:28;-0.40;99.90
56428;DHT22;42331;53.578;9.760;2022-12-10T15:35:03;-0.40;99.90
56428;DHT22;42331;53.578;9.760;2022-12-10T15:37:38;-0.40;99.90
56428;DHT22;42331;53.578;9.760;2022-12-10T15:40:29;-0.30;99.90
56428;DHT22;42331;53.578;9.760;2022-12-10T15:45:52;-0.30;99.90
56428;DHT22;42331;53.578;9.760;2022-12-10T15:48:25;-0.20;99.90
56428;DHT22;42331;53.578;9.760;2022-12-10T15:50:57;-0.20;99.90
56428;DHT22;42331;53.578;9.760;2022-12-10T15:53:36;-0.20;99.90
56428;DHT22;42331;53.578;9.760;2022-12-10T15:56:07;-0.30;99.90
56428;DHT22;42331;53.578;9.760;2022-12-10T15:58:38;-0.30;99.90
56428;DHT22;42331;53.578;9.760;2022-12-10T16:01:13;-0.30;99.90
56428;DHT22;42331;53.578;9.760;2022-12-10T16:03:44;-0.30;99.90
56428;DHT22;42331;53.578;9.760;2022-12-10T16:06:15;-0.30;99.90
56428;DHT22;42331;53.578;9.760;2022-12-10T16:08:45;-0.30;99.90
56428;DHT22;42331;53.578;9.760;2022-12-10T16:11:18;-0.40;99.90
56428;DHT22;42331;53.578;9.760;2022-12-10T16:13:53;-0.40;99.90
56428;DHT22;42331;53.578;9.760;2022-12-10T16:16:26;-0.40;99.90
56428;DHT22;42331;53.578;9.760;2022-12-10T16:18:57;-0.40;99.90
56428;DHT22;42331;53.578;9.760;2022-12-10T16:21:27;-0.30;99.90
56428;DHT22;42331;53.578;9.760;2022-12-10T16:23:58;-0.40;99.90
56428;DHT22;42331;53.578;9.760;2022-12-10T16:26:29;-0.50;99.90
56428;DHT22;42331;53.578;9.760;2022-12-10T16:28:59;-0.50;99.90
